createdAt,value
2023-11-24T00:02:21.039Z,4.65
2023-11-24T00:04:49.695Z,5.05
2023-11-24T00:07:18.661Z,5.18
2023-11-24T00:09:48.270Z,4.85
2023-11-24T00:12:17.058Z,4.68
2023-11-24T00:14:47.184Z,4.70
2023-11-24T00:17:15.808Z,4.95
2023-11-24T00:19:45.826Z,4.25
2023-11-24T00:22:14.487Z,4.57
2023-11-24T00:24:43.795Z,4.03
2023-11-24T00:27:13.972Z,4.05
2023-11-24T00:29:43.449Z,3.92
2023-11-24T00:32:12.079Z,3.83
2023-11-24T00:34:40.808Z,4.47
2023-11-24T00:37:11.050Z,4.57
2023-11-24T00:39:39.736Z,4.45
2023-11-24T00:42:09.272Z,4.45
2023-11-24T00:44:38.197Z,3.95
2023-11-24T00:47:07.147Z,4.30
2023-11-24T00:49:36.487Z,4.93
2023-11-24T00:52:05.281Z,4.00
2023-11-24T00:54:35.857Z,4.45
2023-11-24T00:57:06.468Z,4.93
2023-11-24T00:59:35.169Z,5.07
2023-11-24T01:02:03.945Z,4.53
2023-11-24T01:04:32.642Z,4.85
2023-11-24T01:07:01.350Z,4.95
2023-11-24T01:09:30.356Z,4.40
2023-11-24T01:12:01.441Z,4.53
2023-11-24T01:14:33.069Z,5.05
2023-11-24T01:17:02.212Z,4.93
2023-11-24T01:19:30.914Z,4.78
2023-11-24T01:22:00.059Z,4.55
2023-11-24T01:24:28.770Z,5.10
2023-11-24T01:26:57.448Z,5.18
2023-11-24T01:29:27.649Z,5.05
2023-11-24T01:31:56.859Z,4.85
2023-11-24T01:34:26.085Z,5.28
2023-11-24T01:36:54.788Z,4.95
2023-11-24T01:39:23.720Z,5.45
2023-11-24T01:41:52.355Z,4.93
2023-11-24T01:44:23.774Z,5.28
2023-11-24T01:46:54.017Z,5.57
2023-11-24T01:49:23.342Z,5.30
2023-11-24T01:51:52.654Z,5.03
2023-11-24T01:54:22.249Z,5.93
2023-11-24T01:56:51.309Z,5.68
2023-11-24T01:59:21.533Z,4.85
2023-11-24T02:01:50.376Z,5.18
2023-11-24T02:04:20.545Z,5.82
2023-11-24T02:06:49.331Z,6.53
2023-11-24T02:09:18.770Z,6.45
2023-11-24T02:11:47.685Z,7.00
2023-11-24T02:14:16.458Z,8.75
2023-11-24T02:16:46.269Z,7.93
2023-11-24T02:19:18.242Z,9.55
2023-11-24T02:21:49.632Z,7.43
2023-11-24T02:24:20.839Z,12.20
2023-11-24T02:26:49.582Z,12.63
2023-11-24T02:29:18.623Z,11.80
2023-11-24T02:31:47.359Z,10.10
2023-11-24T02:34:16.438Z,10.00
2023-11-24T02:36:45.763Z,7.90
2023-11-24T02:39:17.288Z,8.13
2023-11-24T02:41:47.651Z,6.57
2023-11-24T02:44:16.383Z,6.88
2023-11-24T02:46:44.920Z,6.07
2023-11-24T02:49:14.360Z,6.13
2023-11-24T02:51:43.047Z,6.72
2023-11-24T02:54:11.851Z,6.53
2023-11-24T02:56:41.890Z,6.07
2023-11-24T02:59:11.929Z,5.93
2023-11-24T03:01:40.764Z,5.68
2023-11-24T03:04:09.610Z,6.50
2023-11-24T03:06:43.404Z,6.97
2023-11-24T03:09:15.050Z,6.78
2023-11-24T03:11:43.714Z,6.68
2023-11-24T03:14:13.735Z,7.75
2023-11-24T03:16:42.650Z,6.63
2023-11-24T03:19:11.795Z,7.18
2023-11-24T03:21:40.466Z,8.05
2023-11-24T03:24:10.286Z,6.90
2023-11-24T03:26:39.104Z,6.93
2023-11-24T03:29:07.772Z,6.82
2023-11-24T03:31:37.778Z,6.68
2023-11-24T03:34:06.538Z,7.25
2023-11-24T03:36:35.746Z,6.32
2023-11-24T03:39:04.701Z,6.80
2023-11-24T03:41:33.345Z,5.80
2023-11-24T03:44:02.141Z,18.35
2023-11-24T03:46:30.808Z,5.95
2023-11-24T03:49:01.239Z,6.30
2023-11-24T03:51:29.874Z,5.68
2023-11-24T03:53:58.758Z,5.80
2023-11-24T03:56:27.722Z,6.28
2023-11-24T03:58:56.386Z,7.05
2023-11-24T04:01:25.304Z,6.78
2023-11-24T04:03:57.076Z,7.25
2023-11-24T04:06:28.191Z,6.32
2023-11-24T04:08:56.818Z,7.47
2023-11-24T04:11:28.729Z,7.22
2023-11-24T04:13:58.540Z,7.13
2023-11-24T04:16:27.679Z,6.75
2023-11-24T04:18:56.385Z,7.80
2023-11-24T04:21:25.026Z,7.05
2023-11-24T04:23:55.159Z,7.07
2023-11-24T04:26:23.750Z,7.35
2023-11-24T04:28:53.867Z,6.32
2023-11-24T04:31:22.477Z,6.70
2023-11-24T04:33:51.107Z,7.63
2023-11-24T04:36:23.353Z,8.27
2023-11-24T04:38:53.002Z,14.50
2023-11-24T04:41:24.161Z,8.90
2023-11-24T04:43:52.827Z,10.13
2023-11-24T04:46:21.553Z,10.05
2023-11-24T04:48:50.172Z,9.05
2023-11-24T04:51:22.897Z,9.32
2023-11-24T04:53:51.766Z,9.70
2023-11-24T04:56:21.341Z,8.55
2023-11-24T04:58:51.520Z,9.00
2023-11-24T05:01:20.298Z,9.05
2023-11-24T05:03:51.228Z,8.85
2023-11-24T05:06:20.168Z,9.55
2023-11-24T05:08:49.096Z,9.00
2023-11-24T05:11:18.277Z,8.38
2023-11-24T05:13:49.044Z,9.93
2023-11-24T05:16:19.465Z,9.75
2023-11-24T05:21:19.820Z,9.75
2023-11-24T05:23:51.766Z,10.38
2023-11-24T05:26:20.452Z,10.48
2023-11-24T05:28:50.571Z,10.13
2023-11-24T05:31:20.719Z,10.23
2023-11-24T05:33:49.746Z,11.25
2023-11-24T05:36:20.184Z,12.88
2023-11-24T05:38:48.848Z,10.38
2023-11-24T05:41:20.533Z,10.43
2023-11-24T05:43:49.172Z,10.68
2023-11-24T05:46:20.264Z,11.23
2023-11-24T05:48:50.394Z,10.80
2023-11-24T05:51:19.025Z,10.38
2023-11-24T05:53:47.569Z,10.27
2023-11-24T05:56:16.166Z,10.13
2023-11-24T05:58:45.370Z,11.02
2023-11-24T06:01:14.155Z,10.00
2023-11-24T06:03:43.511Z,10.30
2023-11-24T06:06:14.929Z,9.95
2023-11-24T06:08:43.830Z,12.52
2023-11-24T06:11:12.479Z,12.43
2023-11-24T06:13:41.068Z,11.63
2023-11-24T06:16:09.971Z,13.45
2023-11-24T06:18:39.286Z,12.73
2023-11-24T06:21:12.106Z,15.02
2023-11-24T06:23:44.405Z,15.50
2023-11-24T06:26:13.084Z,15.13
2023-11-24T06:28:41.813Z,9.88
2023-11-24T06:31:13.169Z,9.60
2023-11-24T06:33:43.401Z,11.52
2023-11-24T06:36:12.688Z,11.50
2023-11-24T06:38:43.960Z,10.57
2023-11-24T06:41:15.784Z,10.20
2023-11-24T06:43:45.407Z,9.38
2023-11-24T06:46:14.306Z,10.80
2023-11-24T06:48:43.132Z,9.65
2023-11-24T06:51:11.796Z,11.90
2023-11-24T06:53:40.497Z,12.82
2023-11-24T06:56:10.632Z,11.40
2023-11-24T06:58:39.315Z,12.90
2023-11-24T07:01:08.217Z,11.15
2023-11-24T07:03:37.510Z,13.52
2023-11-24T07:06:07.886Z,14.05
2023-11-24T07:08:36.785Z,12.82
2023-11-24T07:11:06.066Z,11.50
2023-11-24T07:13:36.303Z,14.02
2023-11-24T07:16:05.708Z,13.30
2023-11-24T07:18:34.643Z,13.55
2023-11-24T07:21:03.588Z,12.50
2023-11-24T07:23:32.624Z,11.40
2023-11-24T07:26:02.260Z,11.07
2023-11-24T07:28:32.438Z,10.20
2023-11-24T07:31:02.498Z,11.07
2023-11-24T07:33:31.147Z,10.30
2023-11-24T07:35:59.746Z,10.75
2023-11-24T07:38:28.641Z,10.55
2023-11-24T07:40:57.321Z,11.35
2023-11-24T07:43:26.042Z,11.05
2023-11-24T07:45:54.675Z,10.10
2023-11-24T07:48:24.896Z,11.45
2023-11-24T07:50:55.101Z,11.10
2023-11-24T07:53:23.724Z,12.30
2023-11-24T07:55:52.313Z,10.63
2023-11-24T07:58:22.221Z,11.10
2023-11-24T08:00:50.919Z,11.25
2023-11-24T08:03:20.395Z,9.52
2023-11-24T08:05:53.714Z,9.93
2023-11-24T08:08:23.603Z,10.75
2023-11-24T08:10:52.139Z,9.75
2023-11-24T08:13:21.303Z,9.23
2023-11-24T08:15:49.967Z,10.43
2023-11-24T08:18:18.833Z,9.68
2023-11-24T08:20:47.714Z,9.30
2023-11-24T08:23:18.749Z,9.90
2023-11-24T08:25:47.877Z,9.20
2023-11-24T08:28:17.788Z,9.70
2023-11-24T08:30:46.585Z,12.15
2023-11-24T08:33:15.298Z,9.65
2023-11-24T08:35:44.039Z,11.18
2023-11-24T08:38:13.207Z,10.32
2023-11-24T08:40:43.393Z,8.60
2023-11-24T08:43:12.673Z,8.63
2023-11-24T08:45:42.622Z,9.32
2023-11-24T08:48:12.532Z,9.95
2023-11-24T08:50:42.149Z,9.27
2023-11-24T08:53:10.733Z,8.40
2023-11-24T08:55:39.606Z,8.77
2023-11-24T08:58:10.956Z,7.95
2023-11-24T09:00:40.804Z,8.88
2023-11-24T09:03:09.431Z,7.72
2023-11-24T09:05:38.075Z,10.35
2023-11-24T09:08:06.974Z,8.07
2023-11-24T09:10:35.665Z,9.40
2023-11-24T09:13:06.204Z,8.68
2023-11-24T09:15:37.451Z,11.43
2023-11-24T09:18:06.161Z,10.75
2023-11-24T09:20:35.444Z,10.27
2023-11-24T09:23:06.038Z,12.65
2023-11-24T09:25:35.014Z,8.57
2023-11-24T09:28:03.714Z,8.27
2023-11-24T09:30:33.487Z,9.23
2023-11-24T09:33:06.014Z,9.65
2023-11-24T09:35:36.211Z,8.60
2023-11-24T09:38:05.110Z,9.10
2023-11-24T09:40:34.854Z,8.30
2023-11-24T09:43:05.388Z,7.75
2023-11-24T09:45:34.257Z,8.85
2023-11-24T09:48:06.396Z,9.07
2023-11-24T09:50:36.583Z,8.73
2023-11-24T09:53:05.595Z,7.97
2023-11-24T09:55:34.420Z,9.30
2023-11-24T09:58:04.119Z,8.93
2023-11-24T10:00:32.843Z,8.30
2023-11-24T10:03:03.811Z,9.40
2023-11-24T10:05:34.464Z,8.38
2023-11-24T10:08:03.188Z,8.93
2023-11-24T10:10:32.438Z,11.30
2023-11-24T10:13:04.270Z,10.32
2023-11-24T10:15:34.271Z,9.10
2023-11-24T10:18:04.837Z,9.88
2023-11-24T10:20:40.121Z,9.57
2023-11-24T10:23:09.256Z,8.65
2023-11-24T10:25:37.878Z,9.00
2023-11-24T10:28:09.679Z,8.18
2023-11-24T10:30:39.778Z,9.50
2023-11-24T10:33:34.161Z,7.22
2023-11-24T10:36:00.554Z,8.30
2023-11-24T10:38:33.033Z,7.45
2023-11-24T10:41:04.950Z,9.15
2023-11-24T10:43:35.630Z,8.95
2023-11-24T10:46:11.372Z,7.50
2023-11-24T10:48:50.374Z,9.38
2023-11-24T10:51:35.736Z,9.00
2023-11-24T10:54:06.325Z,8.10
2023-11-24T10:56:40.548Z,9.85
2023-11-24T10:59:10.538Z,9.32
2023-11-24T11:01:39.523Z,8.50
2023-11-24T11:04:09.148Z,7.50
2023-11-24T11:06:47.061Z,8.70
2023-11-24T11:09:30.558Z,8.38
2023-11-24T11:12:32.618Z,8.60
2023-11-24T11:15:02.633Z,8.25
2023-11-24T11:17:33.643Z,8.23
2023-11-24T11:20:08.542Z,7.82
2023-11-24T11:22:39.323Z,7.53
2023-11-24T11:25:43.514Z,8.38
2023-11-24T11:28:47.804Z,7.43
2023-11-24T11:31:39.368Z,7.82
2023-11-24T11:34:19.434Z,8.20
2023-11-24T11:37:07.649Z,8.60
2023-11-24T11:39:55.006Z,10.27
2023-11-24T11:42:33.505Z,8.65
2023-11-24T11:45:12.059Z,7.78
2023-11-24T11:47:57.798Z,9.02
2023-11-24T11:50:27.630Z,8.48
2023-11-24T11:53:02.014Z,8.30
2023-11-24T11:55:32.329Z,8.20
2023-11-24T11:58:01.920Z,9.02
2023-11-24T12:00:32.787Z,7.85
2023-11-24T12:03:01.671Z,8.05
2023-11-24T12:05:30.400Z,4.63
2023-11-24T12:08:01.231Z,7.88
2023-11-24T12:10:31.762Z,6.78
2023-11-24T12:13:06.277Z,7.50
2023-11-24T12:15:35.821Z,7.70
2023-11-24T12:18:06.899Z,8.18
2023-11-24T12:20:37.833Z,7.15
2023-11-24T12:23:08.123Z,7.57
2023-11-24T12:25:40.804Z,8.35
2023-11-24T12:28:14.894Z,7.03
2023-11-24T12:30:47.856Z,7.00
2023-11-24T12:33:20.316Z,7.25
2023-11-24T12:35:50.228Z,6.55
2023-11-24T12:38:19.609Z,7.70
2023-11-24T12:40:52.396Z,8.35
2023-11-24T12:43:23.810Z,7.25
2023-11-24T12:45:53.615Z,6.78
2023-11-24T12:48:22.844Z,7.10
2023-11-24T12:50:57.572Z,6.57
2023-11-24T12:53:26.698Z,6.50
2023-11-24T12:55:56.867Z,6.97
2023-11-24T12:58:25.824Z,7.95
2023-11-24T13:00:58.318Z,6.72
2023-11-24T13:03:27.928Z,6.82
2023-11-24T13:05:58.865Z,7.32
2023-11-24T13:08:28.371Z,8.70
2023-11-24T13:10:59.514Z,6.38
2023-11-24T13:13:35.885Z,6.93
2023-11-24T13:16:11.141Z,7.00
2023-11-24T13:18:40.685Z,7.32
2023-11-24T13:21:10.345Z,7.05
2023-11-24T13:23:40.552Z,4.80
2023-11-24T13:26:11.847Z,7.05
2023-11-24T13:28:40.478Z,7.82
2023-11-24T13:31:10.039Z,6.93
2023-11-24T13:33:39.424Z,4.95
2023-11-24T13:36:08.592Z,7.75
2023-11-24T13:38:40.711Z,7.20
2023-11-24T13:41:11.400Z,7.88
2023-11-24T13:43:42.084Z,8.73
2023-11-24T13:46:13.159Z,7.40
2023-11-24T13:48:44.819Z,8.57
2023-11-24T13:51:17.321Z,7.47
2023-11-24T13:53:50.970Z,6.93
2023-11-24T13:56:20.176Z,7.72
2023-11-24T13:58:50.759Z,6.93
2023-11-24T14:01:19.578Z,8.02
2023-11-24T14:03:49.528Z,7.22
2023-11-24T14:06:20.292Z,7.30
2023-11-24T14:08:53.306Z,7.55
2023-11-24T14:11:22.543Z,7.75
2023-11-24T14:13:53.028Z,6.68
2023-11-24T14:16:23.309Z,6.95
2023-11-24T14:18:54.542Z,8.18
2023-11-24T14:21:23.382Z,6.50
2023-11-24T14:23:53.801Z,6.57
2023-11-24T14:26:22.831Z,7.85
2023-11-24T14:28:52.848Z,8.20
2023-11-24T14:31:21.972Z,7.25
2023-11-24T14:33:51.097Z,7.25
2023-11-24T14:36:19.901Z,7.47
2023-11-24T14:38:49.745Z,7.93
2023-11-24T14:41:18.650Z,7.28
2023-11-24T14:43:48.321Z,7.00
2023-11-24T14:46:21.293Z,6.72
2023-11-24T14:48:50.940Z,7.00
2023-11-24T14:51:20.161Z,8.80
2023-11-24T14:53:50.666Z,6.50
2023-11-24T14:56:20.483Z,7.75
2023-11-24T14:58:49.080Z,5.70
2023-11-24T15:01:21.033Z,7.22
2023-11-24T15:03:50.086Z,7.25
2023-11-24T15:06:24.832Z,8.27
2023-11-24T15:08:55.597Z,9.30
2023-11-24T15:11:34.781Z,8.18
2023-11-24T15:14:06.482Z,8.15
2023-11-24T15:16:49.049Z,9.27
2023-11-24T15:19:19.114Z,7.35
2023-11-24T15:21:50.062Z,7.40
2023-11-24T15:24:18.947Z,7.93
2023-11-24T15:26:47.608Z,8.57
2023-11-24T15:29:17.586Z,8.02
2023-11-24T15:31:51.741Z,8.07
2023-11-24T15:36:50.087Z,7.38
2023-11-24T15:39:36.028Z,9.73
2023-11-24T15:42:08.216Z,8.90
2023-11-24T15:44:40.520Z,8.68
2023-11-24T15:47:12.556Z,8.50
2023-11-24T15:49:43.128Z,8.40
2023-11-24T15:52:15.525Z,8.25
2023-11-24T15:54:46.169Z,8.65
2023-11-24T15:57:15.088Z,8.23
2023-11-24T15:59:46.979Z,8.18
2023-11-24T16:02:25.050Z,9.93
2023-11-24T16:04:58.240Z,8.15
2023-11-24T16:07:33.777Z,8.63
2023-11-24T16:10:15.528Z,8.65
2023-11-24T16:12:48.167Z,8.35
2023-11-24T16:15:19.746Z,9.55
2023-11-24T16:17:52.493Z,8.02
2023-11-24T16:20:23.470Z,9.20
2023-11-24T16:22:52.236Z,8.85
2023-11-24T16:25:20.901Z,7.95
2023-11-24T16:27:49.830Z,9.25
2023-11-24T16:30:22.015Z,8.98
2023-11-24T16:32:54.295Z,9.27
2023-11-24T16:35:24.155Z,9.73
2023-11-24T16:37:57.456Z,9.95
2023-11-24T16:40:27.862Z,9.77
2023-11-24T16:42:56.519Z,8.75
2023-11-24T16:45:25.281Z,8.52
2023-11-24T16:47:57.554Z,8.52
2023-11-24T16:50:28.359Z,9.70
2023-11-24T16:52:57.101Z,8.93
2023-11-24T16:55:25.848Z,9.23
2023-11-24T16:57:54.554Z,9.25
2023-11-24T17:00:24.788Z,9.00
2023-11-24T17:03:15.728Z,8.70
2023-11-24T17:05:45.829Z,9.00
2023-11-24T17:08:14.534Z,9.65
2023-11-24T17:10:43.655Z,8.77
2023-11-24T17:13:14.915Z,9.05
2023-11-24T17:15:46.867Z,9.93
2023-11-24T17:18:17.190Z,10.57
2023-11-24T17:20:48.576Z,8.70
2023-11-24T17:23:21.174Z,9.45
2023-11-24T17:25:52.217Z,9.23
2023-11-24T17:28:25.160Z,10.32
2023-11-24T17:30:54.000Z,9.00
2023-11-24T17:33:27.470Z,9.57
2023-11-24T17:35:56.748Z,9.75
2023-11-24T17:38:25.560Z,9.38
2023-11-24T17:40:55.475Z,9.18
2023-11-24T17:43:24.296Z,9.07
2023-11-24T17:45:53.827Z,8.73
2023-11-24T17:48:23.579Z,7.78
2023-11-24T17:50:53.781Z,8.70
2023-11-24T17:53:22.479Z,9.18
2023-11-24T17:55:52.308Z,14.40
2023-11-24T17:58:20.961Z,9.20
2023-11-24T18:00:52.187Z,9.27
2023-11-24T18:03:20.925Z,8.63
2023-11-24T18:05:49.785Z,9.88
2023-11-24T18:08:23.964Z,9.50
2023-11-24T18:10:53.585Z,8.40
2023-11-24T18:13:22.439Z,10.10
2023-11-24T18:15:51.153Z,9.23
2023-11-24T18:18:19.794Z,9.90
2023-11-24T18:20:48.493Z,8.02
2023-11-24T18:23:17.544Z,9.30
2023-11-24T18:25:47.795Z,9.50
2023-11-24T18:28:16.521Z,11.05
2023-11-24T18:30:49.922Z,10.88
2023-11-24T18:33:18.660Z,10.10
2023-11-24T18:35:48.516Z,9.98
2023-11-24T18:38:17.419Z,9.35
2023-11-24T18:40:47.680Z,10.05
2023-11-24T18:43:30.028Z,10.20
2023-11-24T18:46:03.646Z,9.55
2023-11-24T18:48:33.267Z,46.58
2023-11-24T18:51:02.350Z,12.35
2023-11-24T18:53:31.338Z,10.57
2023-11-24T18:56:03.228Z,12.07
2023-11-24T18:58:33.335Z,10.15
2023-11-24T19:01:02.404Z,11.02
2023-11-24T19:03:32.549Z,9.68
2023-11-24T19:06:01.456Z,9.55
2023-11-24T19:08:30.345Z,12.30
2023-11-24T19:10:59.262Z,12.80
2023-11-24T19:13:30.177Z,12.73
2023-11-24T19:16:00.635Z,14.52
2023-11-24T19:18:29.481Z,12.07
2023-11-24T19:20:58.197Z,11.15
2023-11-24T19:23:27.198Z,10.73
2023-11-24T19:25:56.152Z,10.65
2023-11-24T19:28:26.154Z,10.93
2023-11-24T19:30:57.347Z,9.75
2023-11-24T19:33:26.639Z,11.05
2023-11-24T19:35:58.478Z,9.73
2023-11-24T19:38:27.261Z,11.02
2023-11-24T19:40:55.984Z,10.40
2023-11-24T19:43:24.799Z,10.27
2023-11-24T19:45:54.997Z,9.85
2023-11-24T19:48:30.620Z,10.10
2023-11-24T19:51:00.215Z,9.60
2023-11-24T19:53:30.180Z,9.80
2023-11-24T19:56:03.650Z,9.80
2023-11-24T19:58:32.421Z,9.05
2023-11-24T20:01:02.504Z,10.73
2023-11-24T20:03:33.028Z,10.30
2023-11-24T20:06:01.922Z,9.25
2023-11-24T20:08:31.317Z,9.45
2023-11-24T20:11:01.524Z,9.98
2023-11-24T20:13:30.786Z,9.55
2023-11-24T20:15:59.650Z,10.25
2023-11-24T20:18:31.212Z,10.18
2023-11-24T20:21:01.829Z,10.45
2023-11-24T20:23:30.839Z,9.77
2023-11-24T20:25:59.529Z,9.95
2023-11-24T20:28:28.885Z,9.25
2023-11-24T20:30:58.391Z,9.75
2023-11-24T20:33:27.392Z,10.23
2023-11-24T20:35:57.227Z,10.15
2023-11-24T20:38:27.380Z,10.35
2023-11-24T20:40:56.343Z,11.35
2023-11-24T20:43:29.427Z,10.73
2023-11-24T20:45:58.165Z,10.77
2023-11-24T20:48:30.298Z,12.25
2023-11-24T20:50:59.644Z,11.85
2023-11-24T20:53:30.183Z,12.02
2023-11-24T20:55:58.867Z,11.95
2023-11-24T20:58:28.307Z,12.23
2023-11-24T21:00:57.516Z,11.98
2023-11-24T21:03:26.717Z,12.68
2023-11-24T21:05:55.474Z,11.55
2023-11-24T21:08:24.553Z,10.98
2023-11-24T21:10:54.715Z,12.00
2023-11-24T21:13:24.835Z,13.50
2023-11-24T21:15:54.566Z,10.77
2023-11-24T21:18:28.306Z,10.73
2023-11-24T21:20:58.622Z,11.98
2023-11-24T21:23:28.039Z,11.82
2023-11-24T21:25:58.170Z,12.90
2023-11-24T21:28:27.207Z,13.63
2023-11-24T21:30:56.084Z,15.18
2023-11-24T21:33:24.926Z,14.07
2023-11-24T21:35:53.786Z,12.63
2023-11-24T21:38:22.517Z,11.40
2023-11-24T21:40:52.785Z,12.60
2023-11-24T21:43:23.091Z,15.13
2023-11-24T21:45:52.535Z,15.23
2023-11-24T21:48:22.798Z,17.10
2023-11-24T21:50:53.454Z,14.57
2023-11-24T21:53:28.067Z,16.52
2023-11-24T21:55:56.813Z,15.25
2023-11-24T21:58:27.018Z,13.70
2023-11-24T22:00:56.084Z,14.00
2023-11-24T22:03:25.681Z,12.98
2023-11-24T22:05:55.206Z,12.82
2023-11-24T22:08:25.290Z,12.95
2023-11-24T22:10:54.370Z,14.82
2023-11-24T22:13:23.070Z,12.77
2023-11-24T22:15:54.321Z,15.30
2023-11-24T22:18:23.076Z,15.20
2023-11-24T22:20:52.820Z,11.43
2023-11-24T22:23:21.690Z,11.88
2023-11-24T22:25:50.441Z,11.35
2023-11-24T22:28:19.911Z,9.88
2023-11-24T22:30:48.966Z,16.35
2023-11-24T22:33:19.562Z,11.55
2023-11-24T22:35:48.514Z,13.10
2023-11-24T22:38:17.273Z,12.88
2023-11-24T22:40:49.348Z,12.45
2023-11-24T22:43:19.377Z,13.60
2023-11-24T22:45:51.177Z,14.85
2023-11-24T22:48:23.565Z,12.80
2023-11-24T22:50:52.299Z,13.70
2023-11-24T22:53:20.935Z,14.32
2023-11-24T22:55:50.342Z,14.93
2023-11-24T22:58:19.797Z,14.00
2023-11-24T23:00:49.136Z,14.35
2023-11-24T23:03:18.538Z,13.85
2023-11-24T23:05:48.726Z,14.25
2023-11-24T23:08:19.581Z,15.77
2023-11-24T23:10:49.344Z,12.68
2023-11-24T23:13:18.043Z,12.50
2023-11-24T23:15:49.564Z,11.80
2023-11-24T23:18:18.583Z,12.07
2023-11-24T23:20:48.800Z,12.38
2023-11-24T23:23:17.530Z,11.90
2023-11-24T23:25:46.174Z,11.73
2023-11-24T23:28:14.960Z,11.75
2023-11-24T23:30:43.712Z,10.32
2023-11-24T23:33:18.068Z,10.18
2023-11-24T23:35:49.449Z,9.90
2023-11-24T23:38:20.349Z,9.38
2023-11-24T23:40:49.740Z,10.23
2023-11-24T23:43:19.547Z,9.73
2023-11-24T23:45:48.395Z,8.70
2023-11-24T23:48:17.961Z,10.27
2023-11-24T23:50:46.854Z,9.70
2023-11-24T23:53:22.718Z,9.43
2023-11-24T23:55:52.156Z,9.13
2023-11-24T23:58:21.615Z,9.07
